Latest Weather Observations for Pound Creek

IDV60801

Issued at 12:05 am EST Thursday 2 October 2014 (issued every 30 minutes, with the page automatically refreshed every 10 minutes)

About weather observations | Map of weather stations | Latest weather observations for VIC | Other Formats
Station Details ID: 085099 Name: POUND CREEK Lat: -38.63 Lon: 145.81 Height: 3.0 m
Data from the previous 72 hours. | See also: Recent months at Pound Creek
Date/Time
EST
Temp
°C
App
Temp
°C
Dew
Point
Rel
Hum
%
Delta-T
°C
Wind Press
QNH
hPa
Press
MSL
hPa
Rain
since 9 am
mm
Dir
 
Spd
km/h
Gust
km/h
Spd
kts
Gust
kts
02/12:00am 11.3 9.4 7.6 78 1.8 NW 7 13 4 7 1023.3 1023.3 0.0
 
Date/Time
EST
Temp
°C
App
Temp
°C
Dew
Point
Rel
Hum
%
Delta-T
°C
Wind Press
QNH
hPa
Press
MSL
hPa
Rain
since 9 am
mm
Dir
 
Spd
km/h
Gust
km/h
Spd
kts
Gust
kts
01/11:30pm 11.4 8.3 7.1 75 2.0 WNW 13 17 7 9 1023.4 1023.4 0.0
01/11:00pm 11.2 7.2 6.7 74 2.1 W 17 24 9 13 1023.7 1023.7 0.0
01/10:30pm 11.7 7.5 7.4 75 2.1 W 19 28 10 15 1023.8 1023.8 0.0
01/10:00pm 11.9 7.9 8.2 78 1.8 W 19 28 10 15 1024.0 1024.0 0.0
01/09:30pm 12.3 7.3 8.0 75 2.1 WSW 24 35 13 19 1024.0 1024.0 0.0
01/09:00pm 12.1 8.1 8.4 78 1.8 W 19 28 10 15 1024.0 1024.0 0.0
01/08:30pm 11.7 7.1 8.0 78 1.8 W 22 30 12 16 1024.2 1024.2 0.0
01/08:00pm 12.2 7.3 8.3 77 1.9 WSW 24 33 13 18 1024.0 1024.0 0.0
01/07:30pm 12.0 6.2 8.1 77 1.9 WSW 28 37 15 20 1023.8 1023.8 0.0
01/07:00pm 11.9 7.5 7.4 74 2.2 W 20 30 11 16 1023.4 1023.4 0.0
01/06:30pm 11.8 7.4 7.3 74 2.2 W 20 32 11 17 1023.2 1023.2 0.0
01/06:00pm 12.0 7.7 7.7 75 2.1 W 20 33 11 18 1023.1 1023.1 0.0
01/05:30pm 12.0 6.2 6.3 68 2.7 W 26 35 14 19 1023.1 1023.1 0.0
01/05:00pm 12.7 6.8 7.4 70 2.6 WSW 28 37 15 20 1023.0 1023.0 0.0
01/04:30pm 12.8 7.5 8.5 75 2.1 WSW 26 35 14 19 1022.8 1022.8 0.0
01/04:00pm 12.7 7.5 7.2 69 2.6 W 24 37 13 20 1022.7 1022.7 0.0
01/03:30pm 13.2 6.4 6.8 65 3.1 WSW 32 41 17 22 1022.7 1022.7 0.0
01/03:00pm 13.9 8.1 8.1 68 2.9 W 28 43 15 23 1023.0 1023.0 0.0
01/02:30pm 13.0 6.5 6.6 65 3.1 WSW 30 44 16 24 1022.7 1022.7 0.0
01/02:00pm 13.4 7.5 7.6 68 2.8 WSW 28 41 15 22 1022.4 1022.4 0.0
01/01:30pm 13.8 8.8 8.2 69 2.8 W 24 30 13 16 1023.1 1023.1 0.0
01/01:00pm 13.1 6.9 8.0 71 2.5 WSW 30 41 16 22 1022.9 1022.9 0.0
01/12:30pm 12.2 7.5 7.9 75 2.1 WSW 22 37 12 20 1022.9 1022.9 0.0
01/12:00pm 13.3 7.6 6.6 64 3.2 WSW 26 33 14 18 1022.8 1022.8 0.0
01/11:30am 13.8 7.9 5.9 59 3.7 WSW 26 37 14 20 1022.5 1022.5 0.0
01/11:00am 13.8 7.8 6.9 63 3.3 SW 28 35 15 19 1022.6 1022.6 0.0
01/10:30am 14.1 8.3 7.9 66 3.1 WSW 28 35 15 19 1022.5 1022.5 0.0
01/10:00am 13.1 6.8 5.5 60 3.5 WSW 28 37 15 20 1022.3 1022.3 0.0
01/09:30am 12.9 6.6 5.6 61 3.4 SW 28 37 15 20 1021.9 1021.9 0.0
01/09:00am 12.7 6.0 5.8 63 3.2 SW 30 37 16 20 1021.5 1021.5 6.4
01/08:30am 11.9 5.1 5.3 64 3.0 WSW 30 41 16 22 1020.9 1020.9 6.4
01/08:00am 11.7 6.2 6.0 68 2.7 WSW 24 37 13 20 1020.4 1020.4 6.4
01/07:30am 11.2 4.7 4.9 65 2.9 SW 28 37 15 20 1019.9 1019.9 6.4
01/07:00am 10.7 4.1 6.1 73 2.1 SW 30 43 16 23 1019.2 1019.2 6.4
01/06:30am 10.0 4.4 5.6 74 2.0 SSW 24 33 13 18 1018.6 1018.6 6.4
01/06:25am 9.9 3.6 5.5 74 2.0 SSW 28 48 15 26 1018.6 1018.6 6.4
01/06:00am 9.9 3.1 5.3 73 2.1 SW 30 41 16 22 1018.1 1018.1 6.4
01/05:30am 10.3 1.6 4.2 66 2.7 WSW 39 56 21 30 1017.4 1017.4 6.4
01/05:00am 10.3 2.0 4.0 65 2.8 WSW 37 52 20 28 1016.8 1016.8 6.4
01/04:30am 10.4 1.7 4.1 65 2.8 SW 39 52 21 28 1016.4 1016.4 6.4
01/04:00am 10.6 1.7 5.2 69 2.5 WSW 41 54 22 29 1015.8 1015.8 6.4
01/03:30am 10.1 2.5 4.0 66 2.7 WSW 33 48 18 26 1015.4 1015.4 6.4
01/03:00am 10.1 0.7 4.3 67 2.6 WSW 43 56 23 30 1015.1 1015.1 6.4
01/02:30am 9.8 0.1 4.0 67 2.6 WSW 44 57 24 31 1014.5 1014.5 6.4
01/02:00am 10.4 2.2 4.5 67 2.6 WSW 37 56 20 30 1013.8 1013.8 6.4
01/01:58am 10.2 2.7 4.6 68 2.5 WSW 33 56 18 30 1013.7 1013.7 6.4
01/01:30am 8.7 0.6 5.3 79 1.5 SW 37 52 20 28 1013.8 1013.8 6.4
01/01:23am 9.1 0.5 4.9 75 1.9 SW 39 48 21 26 1013.7 1013.7 6.4
01/01:21am 9.6 2.5 5.4 75 1.9 W 32 50 17 27 1013.7 1013.7 6.4
01/01:00am 9.3 2.2 5.5 77 1.7 W 32 43 17 23 1013.3 1013.3 6.4
01/12:30am 9.2 -1.0 5.4 77 1.7 WSW 48 67 26 36 1012.9 1012.9 6.4
01/12:29am 9.2 -0.9 5.6 78 1.6 WSW 48 67 26 36 1012.9 1012.9 6.4
01/12:23am 9.3 -2.4 5.5 77 1.7 WSW 56 67 30 36 1012.9 1012.9 6.4
01/12:13am 9.4 1.7 5.2 75 1.9 W 35 59 19 32 1012.7 1012.7 6.4
01/12:00am 8.9 2.1 4.9 76 1.8 W 30 46 16 25 1012.5 1012.5 6.4
 
Date/Time
EST
Temp
°C
App
Temp
°C
Dew
Point
Rel
Hum
%
Delta-T
°C
Wind Press
QNH
hPa
Press
MSL
hPa
Rain
since 9 am
mm
Dir
 
Spd
km/h
Gust
km/h
Spd
kts
Gust
kts
30/11:43pm 8.7 1.8 6.3 85 1.1 WSW 32 50 17 27 1012.5 1012.5 6.4
30/11:30pm 8.0 0.9 5.6 85 1.1 W 32 41 17 22 1012.5 1012.5 6.4
30/11:22pm 9.2 2.0 5.2 76 1.8 W 32 76 17 41 1012.3 1012.3 6.0
30/11:00pm 8.2 2.2 5.5 83 1.2 W 26 37 14 20 1012.0 1012.0 6.0
30/10:39pm 8.4 2.0 5.3 81 1.4 W 28 70 15 38 1011.9 1011.9 5.6
30/10:30pm 7.8 2.6 5.6 86 1.0 W 22 35 12 19 1012.0 1012.0 5.6
30/10:00pm 8.7 -0.4 6.0 83 1.2 WSW 43 63 23 34 1011.5 1011.5 5.4
30/09:54pm 8.6 -1.9 5.7 82 1.3 WSW 50 70 27 38 1011.5 1011.5 5.2
30/09:48pm 9.6 -0.9 5.6 76 1.8 WSW 50 61 27 33 1011.5 1011.5 5.0
30/09:46pm 10.2 3.5 5.6 73 2.1 W 30 56 16 30 1011.4 1011.4 5.0
30/09:30pm 9.8 3.1 5.6 75 1.9 W 30 41 16 22 1010.9 1010.9 5.0
30/09:13pm 9.6 2.7 4.8 72 2.1 W 30 52 16 28 1010.8 1010.8 5.0
30/09:00pm 9.4 3.7 5.0 74 2.0 W 24 39 13 21 1010.6 1010.6 5.0
30/08:30pm 9.5 1.7 4.9 73 2.1 W 35 57 19 31 1010.3 1010.3 5.0
30/08:12pm 9.5 2.4 6.4 81 1.4 W 33 57 18 31 1010.3 1010.3 5.0
30/08:00pm 9.0 0.0 6.3 83 1.2 WSW 43 52 23 28 1010.2 1010.2 5.0
30/07:54pm 10.8 3.7 6.4 74 2.1 W 33 61 18 33 1009.7 1009.7 4.6
30/07:30pm 10.8 5.1 6.9 77 1.8 W 26 39 14 21 1009.4 1009.4 4.6
30/07:00pm 10.4 3.9 6.4 76 1.9 WNW 30 52 16 28 1008.8 1008.8 4.6
30/06:55pm 11.0 4.4 6.0 71 2.3 W 30 52 16 28 1008.7 1008.7 4.6
30/06:30pm 11.2 4.5 5.5 68 2.6 W 30 43 16 23 1008.4 1008.4 4.6
30/06:00pm 10.5 4.5 7.2 80 1.6 W 28 41 15 22 1008.0 1008.0 4.6
30/05:30pm 9.7 1.2 7.0 83 1.3 W 41 65 22 35 1007.3 1007.3 4.4
30/05:20pm 10.5 3.2 7.2 80 1.6 W 35 61 19 33 1006.5 1006.5 4.4
30/05:00pm 10.1 3.2 6.6 79 1.6 W 32 43 17 23 1006.2 1006.2 4.4
30/04:30pm 10.2 -0.5 8.1 87 1.0 W 54 78 29 42 1005.5 1005.5 4.0
30/04:11pm 10.7 1.1 9.3 91 0.7 WSW 50 74 27 40 1004.7 1004.7 3.2
30/04:04pm 10.2 -4.2 8.5 89 0.8 WSW 74 95 40 51 1004.7 1004.7 2.8
30/04:02pm 10.1 -5.5 8.4 89 0.8 WSW 80 95 43 51 1004.5 1004.5 2.8
30/04:00pm 10.3 -1.2 8.7 90 0.8 WSW 59 82 32 44 1004.4 1004.4 2.8
30/03:30pm 12.8 2.0 11.4 91 0.7 W 59 78 32 42 1003.0 1003.0 1.6
30/03:02pm 17.6 11.3 11.2 66 3.5 W 35 72 19 39 1001.5 1001.5 0.0
30/03:00pm 18.2 14.3 10.8 62 4.0 NW 22 43 12 23 1000.7 1000.7 0.0
30/02:30pm 19.4 14.9 9.9 54 5.1 NW 24 44 13 24 1000.2 1000.2 0.0
30/02:00pm 19.7 15.3 10.4 55 5.0 NW 24 44 13 24 1001.0 1001.0 0.0
30/01:50pm 20.3 15.1 10.4 53 5.4 NW 28 48 15 26 1001.0 1001.0 0.0
30/01:30pm 19.8 14.7 10.5 55 5.0 NW 28 44 15 24 1001.5 1001.5 0.0
30/01:00pm 20.2 14.1 9.7 51 5.6 NW 32 61 17 33 1002.0 1002.0 0.0
30/12:30pm 21.1 15.8 10.0 49 6.0 NW 28 52 15 28 1002.5 1002.5 0.0
30/12:00pm 20.9 15.4 9.2 47 6.2 NW 28 52 15 28 1003.0 1003.0 0.0
30/11:30am 20.5 16.0 10.0 51 5.6 NW 24 48 13 26 1003.8 1003.8 0.0
30/11:00am 20.2 15.6 10.9 55 5.1 NNW 26 43 14 23 1004.4 1004.4 0.0
30/10:30am 20.0 16.9 12.3 61 4.3 NNW 20 39 11 21 1005.2 1005.2 0.0
30/10:00am 18.9 15.5 11.2 61 4.2 NNW 20 39 11 21 1006.1 1006.1 0.0
30/09:30am 17.7 14.1 10.6 63 3.8 NNW 20 33 11 18 1006.9 1006.9 0.0
30/09:00am 16.7 13.0 10.3 66 3.4 NW 20 33 11 18 1007.4 1007.4 0.0
30/08:30am 16.2 13.4 11.4 73 2.6 NW 17 26 9 14 1007.7 1007.7 0.0
30/08:00am 15.2 13.1 11.2 77 2.1 NNW 13 24 7 13 1008.2 1008.2 0.0
30/07:30am 13.8 11.9 11.7 87 1.1 NNW 13 20 7 11 1008.6 1008.6 0.0
30/07:00am 11.7 10.9 10.9 95 0.4 NNW 6 11 3 6 1008.9 1008.9 0.0
30/06:30am 10.0 8.8 9.5 97 0.2 NNE 6 7 3 4 1008.7 1008.7 0.0
30/06:00am 9.2 7.8 8.7 97 0.2 N 6 7 3 4 1008.4 1008.4 0.0
30/05:30am 7.9 6.0 7.5 97 0.2 NNW 7 9 4 5 1008.2 1008.2 0.0
30/05:00am 8.9 6.9 8.5 97 0.2 N 9 11 5 6 1007.9 1007.9 0.0
30/04:30am 8.4 6.3 8.1 98 0.1 N 9 13 5 7 1008.1 1008.1 0.0
30/04:00am 8.2 6.0 7.8 97 0.2 N 9 11 5 6 1008.4 1008.4 0.0
30/03:30am 9.4 8.0 8.8 96 0.3 N 6 7 3 4 1008.5 1008.5 0.0
30/03:00am 9.5 7.9 8.9 96 0.3 N 7 9 4 5 1008.7 1008.7 0.0
30/02:30am 10.2 9.3 9.4 95 0.4 N 4 6 2 3 1009.1 1009.1 0.0
30/02:00am 11.5 11.3 10.6 94 0.5 N 2 4 1 2 1009.9 1009.9 0.0
30/01:30am 11.5 11.7 10.4 93 0.6 CALM 0 0 0 0 1010.2 1010.2 0.0
30/01:00am 11.9 10.8 10.5 91 0.7 SSW 7 11 4 6 1010.8 1010.8 0.0
30/12:30am 12.4 10.5 10.6 89 0.9 SW 11 13 6 7 1011.1 1011.1 0.0
30/12:00am 13.5 10.0 10.1 80 1.8 WSW 19 39 10 21 1010.9 1010.9 0.0
 
Date/Time
EST
Temp
°C
App
Temp
°C
Dew
Point
Rel
Hum
%
Delta-T
°C
Wind Press
QNH
hPa
Press
MSL
hPa
Rain
since 9 am
mm
Dir
 
Spd
km/h
Gust
km/h
Spd
kts
Gust
kts
29/11:30pm 12.6 10.7 9.1 79 1.8 WSW 9 15 5 8 1011.1 1011.1 0.0
29/11:00pm 14.4 11.8 9.2 71 2.7 N 13 20 7 11 1010.8 1010.8 0.0
29/10:30pm 11.0 9.5 10.4 96 0.3 N 9 13 5 7 1011.1 1011.1 0.0
29/10:00pm 8.5 7.2 7.7 95 0.4 N 4 6 2 3 1011.1 1011.1 0.0
29/09:30pm 9.0 8.2 8.1 94 0.4 NE 2 4 1 2 1011.2 1011.2 0.0
29/09:00pm 9.1 8.6 8.0 93 0.5 CALM 0 2 0 1 1011.4 1011.4 0.0
29/08:30pm 9.3 8.5 8.1 92 0.6 N 2 4 1 2 1011.5 1011.5 0.0
29/08:00pm 9.7 8.5 8.1 90 0.8 ENE 4 7 2 4 1011.5 1011.5 0.0
29/07:30pm 10.9 10.4 9.2 89 0.8 NNE 2 4 1 2 1011.4 1011.4 0.0
29/07:00pm 12.1 11.7 9.7 85 1.2 WSW 2 6 1 3 1011.1 1011.1 0.0
29/06:30pm 13.6 13.5 9.6 77 2.0 CALM 0 2 0 1 1010.8 1010.8 0.0
29/06:00pm 15.0 14.0 10.2 73 2.5 SW 6 7 3 4 1010.5 1010.5 0.0
29/05:30pm 16.2 15.4 10.9 71 2.8 SW 6 7 3 4 1010.4 1010.4 0.0
29/05:00pm 16.8 15.0 10.9 68 3.2 WSW 11 15 6 8 1010.3 1010.3 0.0
29/04:30pm 17.1 14.6 10.9 67 3.3 SW 15 20 8 11 1010.3 1010.3 0.0
29/04:00pm 17.1 13.7 10.5 65 3.5 SW 19 24 10 13 1010.4 1010.4 0.0
29/03:30pm 18.0 14.6 10.6 62 4.0 SW 19 22 10 12 1010.4 1010.4 0.0
29/03:00pm 19.5 15.9 10.5 56 4.9 W 20 28 11 15 1010.6 1010.6 0.0
29/02:30pm 19.4 15.8 10.4 56 4.8 W 20 32 11 17 1010.8 1010.8 0.0
29/02:00pm 19.6 16.7 11.1 58 4.6 WNW 17 28 9 15 1011.0 1011.0 0.0
29/01:30pm 18.8 15.0 9.8 56 4.8 WNW 20 37 11 20 1011.4 1011.4 0.0
29/01:00pm 18.3 14.0 9.4 56 4.7 WNW 22 41 12 22 1011.9 1011.9 0.0
29/12:30pm 18.2 13.4 9.0 55 4.8 WNW 24 41 13 22 1012.3 1012.3 0.0
29/12:00pm 17.8 14.4 10.7 63 3.8 WNW 19 39 10 21 1012.4 1012.4 0.0
29/11:30am 17.2 12.2 9.6 61 4.0 WNW 26 43 14 23 1012.4 1012.4 0.0
29/11:00am 17.0 13.4 9.9 63 3.7 WNW 19 28 10 15 1012.7 1012.7 0.0
29/10:30am 16.7 11.7 9.6 63 3.7 W 26 37 14 20 1013.0 1013.0 0.0
29/10:00am 16.3 13.0 9.7 65 3.4 WNW 17 26 9 14 1012.9 1012.9 0.0
29/09:30am 15.6 12.6 10.6 72 2.6 WNW 17 33 9 18 1013.1 1013.1 0.0
29/09:00am 15.8 12.8 10.6 71 2.8 WNW 17 30 9 16 1012.8 1012.8 0.4
29/08:30am 15.5 13.0 10.9 74 2.4 WNW 15 28 8 15 1012.6 1012.6 0.4
29/08:00am 14.1 11.8 10.3 78 2.0 NW 13 26 7 14 1012.6 1012.6 0.4
29/07:30am 13.9 11.5 10.1 78 2.0 NW 13 24 7 13 1012.1 1012.1 0.4
29/07:00am 13.1 11.0 9.9 81 1.6 NNW 11 19 6 10 1011.9 1011.9 0.4
29/06:30am 12.8 10.2 9.4 80 1.7 NW 13 22 7 12 1011.5 1011.5 0.4
29/06:00am 12.6 9.6 9.4 81 1.6 NW 15 24 8 13 1010.8 1010.8 0.4
29/05:30am 12.7 9.7 9.3 80 1.7 NW 15 22 8 12 1010.5 1010.5 0.4
29/05:00am 12.6 10.3 9.1 79 1.8 NW 11 17 6 9 1010.1 1010.1 0.4
29/04:30am 12.9 9.5 9.0 77 2.0 NW 17 26 9 14 1009.6 1009.6 0.4
29/04:00am 12.5 9.8 8.8 78 1.9 NW 13 24 7 13 1009.3 1009.3 0.4
29/03:30am 12.2 9.7 8.1 76 2.0 NW 11 20 6 11 1009.1 1009.1 0.4
29/03:00am 12.8 10.4 8.5 75 2.1 WNW 11 20 6 11 1008.7 1008.7 0.4
29/02:30am 13.0 10.6 8.7 75 2.2 WNW 11 19 6 10 1008.8 1008.8 0.4
29/02:00am 13.0 11.1 10.4 84 1.4 NNW 11 17 6 9 1008.4 1008.4 0.4
29/01:30am 12.7 11.7 11.1 90 0.8 NNW 7 11 4 6 1008.5 1008.5 0.4
29/01:00am 12.9 12.5 11.0 88 1.0 NNW 4 6 2 3 1008.1 1008.1 0.2
29/12:30am 13.7 12.9 10.9 83 1.5 NNW 6 9 3 5 1007.6 1007.6 0.0

Other Formats:

Comma delimited format used in spreadsheet applications
http://www.bom.gov.au/fwo/IDV60801/IDV60801.94886.axf

JavaScript Object Notation format (JSON) in row-major order
http://www.bom.gov.au/fwo/IDV60801/IDV60801.94886.json